createdAt,value
2023-04-25T00:00:12.438Z,16.22
2023-04-25T00:00:35.716Z,16.21
2023-04-25T00:00:59.068Z,16.23
2023-04-25T00:01:22.995Z,16.22
2023-04-25T00:01:45.579Z,16.21
2023-04-25T00:02:09.071Z,16.19
2023-04-25T00:02:33.098Z,16.18
2023-04-25T00:02:56.969Z,16.16
2023-04-25T00:03:20.480Z,16.17
2023-04-25T00:03:43.473Z,16.15
2023-04-25T00:04:06.961Z,16.02
2023-04-25T00:04:29.055Z,16.13
2023-04-25T00:04:53.339Z,16.13
2023-04-25T00:05:16.136Z,16.11
2023-04-25T00:05:38.175Z,16.12
2023-04-25T00:06:03.291Z,16.15
2023-04-25T00:06:27.457Z,16.15
2023-04-25T00:06:49.137Z,16.16
2023-04-25T00:07:11.461Z,16.19
2023-04-25T00:07:33.244Z,16.14
2023-04-25T00:07:56.111Z,16.22
2023-04-25T00:08:18.053Z,16.21
2023-04-25T00:08:39.860Z,16.20
2023-04-25T00:09:03.032Z,16.18
2023-04-25T00:09:25.642Z,16.18
2023-04-25T00:09:47.334Z,16.19
2023-04-25T00:10:10.369Z,16.16
2023-04-25T00:11:08.008Z,16.16
2023-04-25T00:11:31.810Z,16.16
2023-04-25T00:11:53.405Z,16.15
2023-04-25T00:12:16.028Z,16.10
2023-04-25T00:12:37.735Z,16.12
2023-04-25T00:13:03.383Z,16.11
2023-04-25T00:13:26.632Z,16.07
2023-04-25T00:13:50.698Z,16.10
2023-04-25T00:14:12.783Z,16.09
2023-04-25T00:14:36.369Z,16.11
2023-04-25T00:14:57.947Z,16.13
2023-04-25T00:15:19.742Z,16.14
2023-04-25T00:15:42.683Z,16.11
2023-04-25T00:16:07.197Z,16.10
2023-04-25T00:16:29.986Z,16.12
2023-04-25T00:16:53.327Z,15.99
2023-04-25T00:17:17.344Z,16.06
2023-04-25T00:17:40.347Z,16.06
2023-04-25T00:18:02.173Z,16.08
2023-04-25T00:18:24.045Z,16.08
2023-04-25T00:18:47.258Z,16.10
2023-04-25T00:19:08.931Z,16.09
2023-04-25T00:19:31.650Z,16.08
2023-04-25T00:19:55.018Z,16.04
2023-04-25T00:20:16.794Z,16.03
2023-04-25T00:20:38.578Z,16.03
2023-04-25T00:21:01.486Z,16.01
2023-04-25T00:21:25.173Z,16.04
2023-04-25T00:21:47.298Z,16.06
2023-04-25T00:22:09.075Z,16.07
2023-04-25T00:22:31.656Z,16.05
2023-04-25T00:22:54.265Z,16.07
2023-04-25T00:23:18.592Z,16.05
2023-04-25T00:23:40.449Z,16.02
2023-04-25T00:24:04.879Z,16.03
2023-04-25T00:24:26.855Z,15.94
2023-04-25T00:24:48.640Z,15.90
2023-04-25T00:25:10.429Z,15.94
2023-04-25T00:25:33.070Z,15.89
2023-04-25T00:25:54.696Z,15.92
2023-04-25T00:26:16.330Z,15.94
2023-04-25T00:26:38.054Z,15.92
2023-04-25T00:27:00.775Z,15.91
2023-04-25T00:27:22.454Z,15.95
2023-04-25T00:27:44.091Z,15.96
2023-04-25T00:28:08.508Z,15.95
2023-04-25T00:28:31.069Z,15.93
2023-04-25T00:28:52.931Z,15.98
2023-04-25T00:29:14.746Z,15.96
2023-04-25T00:29:36.591Z,15.92
2023-04-25T00:29:59.492Z,15.94
2023-04-25T00:30:21.352Z,15.90
2023-04-25T00:30:44.626Z,15.88
2023-04-25T00:31:06.429Z,15.87
2023-04-25T00:31:29.916Z,15.86
2023-04-25T00:31:51.698Z,15.84
2023-04-25T00:32:13.687Z,15.71
2023-04-25T00:32:35.706Z,15.84
2023-04-25T00:32:58.324Z,15.84
2023-04-25T00:33:20.053Z,15.87
2023-04-25T00:33:41.711Z,15.88
2023-04-25T00:34:03.393Z,15.90
2023-04-25T00:34:25.299Z,15.91
2023-04-25T00:34:48.078Z,15.94
2023-04-25T00:35:10.373Z,15.96
2023-04-25T00:35:32.051Z,15.96
2023-04-25T00:35:53.980Z,15.96
2023-04-25T00:36:19.132Z,15.99
2023-04-25T00:36:42.472Z,15.97
2023-04-25T00:37:04.646Z,15.98
2023-04-25T00:37:26.584Z,15.97
2023-04-25T00:37:48.233Z,15.96
2023-04-25T00:38:10.892Z,15.98
2023-04-25T00:38:32.769Z,15.99
2023-04-25T00:38:54.789Z,15.97
2023-04-25T00:39:17.918Z,15.99
2023-04-25T00:39:40.742Z,15.98
2023-04-25T00:40:02.415Z,15.98
2023-04-25T00:40:24.149Z,15.92
2023-04-25T00:40:46.340Z,15.95
2023-04-25T00:41:09.602Z,15.87
2023-04-25T00:41:31.644Z,15.88
2023-04-25T00:41:55.648Z,15.95
2023-04-25T00:42:17.353Z,15.94
2023-04-25T00:42:40.199Z,15.93
2023-04-25T00:43:02.980Z,15.89
2023-04-25T00:43:26.190Z,15.92
2023-04-25T00:43:49.680Z,15.93
2023-04-25T00:44:13.208Z,15.94
2023-04-25T00:44:37.259Z,15.95
2023-04-25T00:45:00.105Z,15.92
2023-04-25T00:45:21.938Z,15.93
2023-04-25T00:45:44.408Z,15.92
2023-04-25T00:46:07.103Z,15.94
2023-04-25T00:46:28.781Z,15.94
2023-04-25T00:46:51.258Z,15.89
2023-04-25T00:47:13.127Z,15.88
2023-04-25T00:47:36.874Z,15.88
2023-04-25T00:47:59.819Z,15.89
2023-04-25T00:48:23.106Z,15.87
2023-04-25T00:48:44.725Z,15.86
2023-04-25T00:49:06.471Z,15.82
2023-04-25T00:49:29.240Z,15.80
2023-04-25T00:49:50.854Z,15.81
2023-04-25T00:50:13.233Z,15.86
2023-04-25T00:50:35.171Z,15.83
2023-04-25T00:51:00.200Z,15.85
2023-04-25T00:51:22.638Z,15.81
2023-04-25T00:51:45.628Z,15.65
2023-04-25T00:52:07.615Z,15.83
2023-04-25T00:52:30.546Z,15.85
2023-04-25T00:52:52.910Z,15.84
2023-04-25T00:53:14.699Z,15.83
2023-04-25T00:53:36.808Z,15.84
2023-04-25T00:53:59.425Z,15.84
2023-04-25T00:54:22.621Z,15.81
2023-04-25T00:54:44.325Z,15.85
2023-04-25T00:55:07.340Z,15.88
2023-04-25T00:55:30.062Z,15.82
2023-04-25T00:55:52.400Z,15.86
2023-04-25T00:56:14.121Z,15.85
2023-04-25T00:56:36.101Z,15.87
2023-04-25T00:56:59.048Z,15.83
2023-04-25T00:57:20.907Z,15.68
2023-04-25T00:57:43.078Z,15.79
2023-04-25T00:58:04.833Z,15.73
2023-04-25T00:58:27.938Z,15.84
2023-04-25T00:58:51.063Z,15.83
2023-04-25T00:59:12.902Z,15.81
2023-04-25T00:59:34.734Z,15.76
2023-04-25T00:59:57.824Z,15.79
2023-04-25T01:00:20.637Z,15.69
2023-04-25T01:00:43.832Z,15.75
2023-04-25T01:01:07.761Z,15.70
2023-04-25T01:01:30.820Z,15.69
2023-04-25T01:01:52.586Z,15.69
2023-04-25T01:02:14.527Z,15.66
2023-04-25T01:02:38.324Z,15.69
2023-04-25T01:03:01.548Z,15.68
2023-04-25T01:03:24.090Z,15.69
2023-04-25T01:03:48.710Z,15.65
2023-04-25T01:04:11.428Z,15.69
2023-04-25T01:04:33.755Z,15.73
2023-04-25T01:04:55.480Z,15.71
2023-04-25T01:05:19.838Z,15.68
2023-04-25T01:05:42.470Z,15.65
2023-04-25T01:06:04.821Z,15.64
2023-04-25T01:06:26.681Z,15.50
2023-04-25T01:06:50.215Z,15.63
2023-04-25T01:07:11.827Z,15.68
2023-04-25T01:07:33.470Z,15.64
2023-04-25T01:07:55.674Z,15.57
2023-04-25T01:08:18.324Z,15.64
2023-04-25T01:08:41.000Z,15.62
2023-04-25T01:09:03.654Z,15.61
2023-04-25T01:09:27.069Z,15.33
2023-04-25T01:09:50.095Z,15.58
2023-04-25T01:10:12.190Z,15.58
2023-04-25T01:10:33.872Z,15.49
2023-04-25T01:10:55.510Z,15.54
2023-04-25T01:11:18.375Z,15.50
2023-04-25T01:11:41.040Z,15.47
2023-04-25T01:12:03.711Z,15.46
2023-04-25T01:12:25.476Z,15.41
2023-04-25T01:12:49.121Z,15.46
2023-04-25T01:13:10.894Z,15.38
2023-04-25T01:13:33.658Z,15.31
2023-04-25T01:13:55.878Z,15.45
2023-04-25T01:14:17.698Z,15.45
2023-04-25T01:14:40.366Z,15.46
2023-04-25T01:15:02.305Z,15.38
2023-04-25T01:15:25.407Z,15.43
2023-04-25T01:15:48.712Z,15.35
2023-04-25T01:16:11.687Z,15.33
2023-04-25T01:16:34.062Z,15.42
2023-04-25T01:16:55.800Z,15.42
2023-04-25T01:17:18.760Z,15.35
2023-04-25T01:17:43.790Z,15.29
2023-04-25T01:18:06.917Z,15.38
2023-04-25T01:18:28.947Z,15.35
2023-04-25T01:18:51.683Z,15.31
2023-04-25T01:19:19.407Z,15.29
2023-04-25T01:19:42.539Z,15.34
2023-04-25T01:20:05.737Z,15.34
2023-04-25T01:20:29.260Z,15.33
2023-04-25T01:20:52.559Z,15.30
2023-04-25T01:21:16.297Z,15.31
2023-04-25T01:21:37.962Z,15.32
2023-04-25T01:21:59.811Z,15.35
2023-04-25T01:22:22.718Z,15.34
2023-04-25T01:22:44.464Z,15.34
2023-04-25T01:23:06.624Z,15.31
2023-04-25T01:23:28.478Z,15.28
2023-04-25T01:23:51.174Z,15.30
2023-04-25T01:24:14.678Z,15.33
2023-04-25T01:24:38.073Z,15.36
2023-04-25T01:25:00.808Z,15.33
2023-04-25T01:25:25.008Z,15.38
2023-04-25T01:25:48.701Z,15.37
2023-04-25T01:26:12.343Z,15.34
2023-04-25T01:26:35.143Z,15.34
2023-04-25T01:26:57.828Z,15.38
2023-04-25T01:27:21.752Z,15.36
2023-04-25T01:27:44.038Z,15.32
2023-04-25T01:28:06.268Z,15.35
2023-04-25T01:28:29.507Z,15.35
2023-04-25T01:28:52.559Z,15.33
2023-04-25T01:29:14.153Z,15.33
2023-04-25T01:29:36.429Z,15.31
2023-04-25T01:29:58.835Z,15.23
2023-04-25T01:30:21.572Z,15.27
2023-04-25T01:30:44.219Z,15.27
2023-04-25T01:31:06.865Z,15.24
2023-04-25T01:31:29.350Z,15.20
2023-04-25T01:31:53.538Z,15.24
2023-04-25T01:32:15.934Z,15.21
2023-04-25T01:32:39.549Z,15.20
2023-04-25T01:33:03.713Z,15.18
2023-04-25T01:33:25.581Z,15.22
2023-04-25T01:33:48.489Z,15.23
2023-04-25T01:34:12.182Z,15.25
2023-04-25T01:34:35.277Z,15.24
2023-04-25T01:34:56.886Z,15.26
2023-04-25T01:35:18.590Z,15.23
2023-04-25T01:35:41.262Z,15.23
2023-04-25T01:36:06.344Z,15.16
2023-04-25T01:36:32.816Z,15.32
2023-04-25T01:36:55.527Z,15.29
2023-04-25T01:37:17.798Z,15.25
2023-04-25T01:37:40.909Z,15.17
2023-04-25T01:38:04.591Z,15.28
2023-04-25T01:38:28.384Z,15.04
2023-04-25T01:38:50.702Z,15.04
2023-04-25T01:39:12.515Z,15.30
2023-04-25T01:39:35.349Z,15.30
2023-04-25T01:39:57.131Z,15.26
2023-04-25T01:40:19.734Z,15.25
2023-04-25T01:40:42.496Z,15.23
2023-04-25T01:41:05.227Z,15.26
2023-04-25T01:41:26.877Z,15.25
2023-04-25T01:41:49.666Z,15.23
2023-04-25T01:42:11.334Z,15.23
2023-04-25T01:42:34.535Z,15.14
2023-04-25T01:42:56.250Z,15.25
2023-04-25T01:43:18.041Z,15.18
2023-04-25T01:43:40.827Z,15.21
2023-04-25T01:44:02.942Z,15.19
2023-04-25T01:44:25.039Z,15.16
2023-04-25T01:44:47.083Z,15.20
2023-04-25T01:45:11.615Z,15.21
2023-04-25T01:45:34.579Z,15.24
2023-04-25T01:45:57.946Z,15.16
2023-04-25T01:46:19.876Z,15.26
2023-04-25T01:46:42.120Z,15.19
2023-04-25T01:47:04.938Z,15.23
2023-04-25T01:47:26.635Z,15.24
2023-04-25T01:47:50.886Z,15.23
2023-04-25T01:48:13.623Z,15.22
2023-04-25T01:48:36.608Z,15.22
2023-04-25T01:48:58.269Z,15.19
2023-04-25T01:49:20.178Z,15.23
2023-04-25T01:49:43.091Z,15.19
2023-04-25T01:50:06.762Z,15.18
2023-04-25T01:50:28.516Z,15.14
2023-04-25T01:50:50.185Z,15.16
2023-04-25T01:51:14.125Z,15.15
2023-04-25T01:51:37.922Z,15.10
2023-04-25T01:51:59.959Z,15.10
2023-04-25T01:52:21.834Z,15.14
2023-04-25T01:52:43.804Z,15.16
2023-04-25T01:53:07.842Z,15.20
2023-04-25T01:53:30.322Z,15.17
2023-04-25T01:53:53.255Z,15.19
2023-04-25T01:54:15.225Z,15.20
2023-04-25T01:54:37.875Z,15.18
2023-04-25T01:55:01.716Z,15.16
2023-04-25T01:55:25.238Z,15.16
2023-04-25T01:56:09.136Z,15.10
2023-04-25T01:56:31.958Z,15.13
2023-04-25T01:56:53.711Z,15.15
2023-04-25T01:57:17.240Z,15.19
2023-04-25T01:57:40.806Z,15.19
2023-04-25T01:58:03.741Z,15.18
2023-04-25T01:58:44.376Z,15.17
2023-04-25T01:59:15.806Z,15.13
2023-04-25T01:59:59.891Z,15.12
2023-04-25T02:00:38.960Z,15.08
2023-04-25T02:01:01.765Z,15.09
2023-04-25T02:01:29.259Z,15.11
2023-04-25T02:02:07.681Z,15.11
2023-04-25T02:02:31.946Z,15.16
2023-04-25T02:02:54.589Z,15.14
2023-04-25T02:03:22.883Z,15.12
2023-04-25T02:03:45.029Z,15.11
2023-04-25T02:04:16.608Z,15.15
2023-04-25T02:04:39.589Z,15.08
2023-04-25T02:05:01.995Z,15.12
2023-04-25T02:05:25.130Z,15.11
2023-04-25T02:05:47.541Z,15.06
2023-04-25T02:06:09.409Z,15.03
2023-04-25T02:06:34.528Z,15.11
2023-04-25T02:06:58.613Z,14.92
2023-04-25T02:07:28.198Z,14.97
2023-04-25T02:07:49.965Z,15.05
2023-04-25T02:08:11.740Z,14.93
2023-04-25T02:08:34.484Z,14.86
2023-04-25T02:08:56.183Z,15.03
2023-04-25T02:09:17.844Z,15.05
2023-04-25T02:09:44.446Z,15.03
2023-04-25T02:10:09.178Z,15.07
2023-04-25T02:10:37.097Z,14.93
2023-04-25T02:11:13.895Z,15.02
2023-04-25T02:11:59.949Z,15.03
2023-04-25T02:12:48.199Z,15.03
2023-04-25T02:13:29.217Z,15.01
2023-04-25T02:13:58.256Z,14.97
2023-04-25T02:14:35.238Z,14.97
2023-04-25T02:15:08.230Z,14.93
2023-04-25T02:15:48.046Z,14.94
2023-04-25T02:16:11.437Z,14.93
2023-04-25T02:16:34.075Z,14.90
2023-04-25T02:16:58.239Z,14.90
2023-04-25T02:17:20.056Z,14.91
2023-04-25T02:17:41.922Z,14.94
2023-04-25T02:18:04.913Z,14.94
2023-04-25T02:18:27.321Z,14.95
2023-04-25T02:18:49.023Z,14.96
2023-04-25T02:19:11.057Z,14.93
2023-04-25T02:19:33.796Z,14.95
2023-04-25T02:19:55.922Z,14.92
2023-04-25T02:20:20.802Z,14.84
2023-04-25T02:20:43.591Z,14.95
2023-04-25T02:21:05.411Z,14.92
2023-04-25T02:21:27.448Z,14.92
2023-04-25T02:21:49.161Z,14.92
2023-04-25T02:22:12.131Z,14.93
2023-04-25T02:22:35.027Z,14.92
2023-04-25T02:22:56.775Z,14.92
2023-04-25T02:23:20.078Z,14.93
2023-04-25T02:23:41.761Z,14.93
2023-04-25T02:24:05.035Z,14.91
2023-04-25T02:24:28.801Z,14.94
2023-04-25T02:24:51.460Z,14.91
2023-04-25T02:25:13.195Z,14.91
2023-04-25T02:25:35.047Z,14.91
2023-04-25T02:25:58.428Z,14.91
2023-04-25T02:26:20.693Z,14.93
2023-04-25T02:26:42.390Z,14.90
2023-04-25T02:27:04.423Z,14.84
2023-04-25T02:27:27.089Z,14.83
2023-04-25T02:27:49.190Z,14.90
2023-04-25T02:28:11.440Z,14.92
2023-04-25T02:28:33.264Z,14.89
2023-04-25T02:28:55.837Z,14.87
2023-04-25T02:29:17.494Z,14.86
2023-04-25T02:29:39.314Z,14.86
2023-04-25T02:30:00.981Z,14.86
2023-04-25T02:30:23.618Z,14.86
2023-04-25T02:30:45.253Z,14.86
2023-04-25T02:31:07.051Z,14.90
2023-04-25T02:31:28.741Z,14.89
2023-04-25T02:31:51.081Z,14.90
2023-04-25T02:32:13.825Z,14.86
2023-04-25T02:32:36.092Z,14.88
2023-04-25T02:32:57.988Z,14.90
2023-04-25T02:33:19.635Z,14.91
2023-04-25T02:33:42.186Z,14.92
2023-04-25T02:34:03.785Z,14.89
2023-04-25T02:34:25.803Z,14.89
2023-04-25T02:34:49.227Z,14.88
2023-04-25T02:35:11.942Z,14.88
2023-04-25T02:35:33.681Z,14.89
2023-04-25T02:35:55.291Z,14.89
2023-04-25T02:36:17.422Z,14.77
2023-04-25T02:36:40.010Z,14.89
2023-04-25T02:37:01.774Z,14.88
2023-04-25T02:37:24.901Z,14.88
2023-04-25T02:37:46.670Z,14.87
2023-04-25T02:38:09.823Z,14.88
2023-04-25T02:38:31.471Z,14.86
2023-04-25T02:38:53.184Z,14.90
2023-04-25T02:39:16.317Z,14.89
2023-04-25T02:39:38.014Z,14.89
2023-04-25T02:40:00.908Z,14.77
2023-04-25T02:40:22.608Z,14.88
2023-04-25T02:40:44.384Z,14.84
2023-04-25T02:41:06.162Z,14.84
2023-04-25T02:41:29.090Z,14.81
2023-04-25T02:41:51.050Z,14.85
2023-04-25T02:42:12.740Z,14.83
2023-04-25T02:42:34.644Z,14.88
2023-04-25T02:42:57.332Z,14.88
2023-04-25T02:43:22.949Z,14.90
2023-04-25T02:43:47.301Z,14.85
2023-04-25T02:44:08.918Z,14.88
2023-04-25T02:44:31.518Z,14.89
2023-04-25T02:44:53.848Z,14.90
2023-04-25T02:45:16.004Z,14.89
2023-04-25T02:45:38.717Z,14.88
2023-04-25T02:46:01.383Z,14.83
2023-04-25T02:46:32.303Z,14.85
2023-04-25T02:47:01.440Z,14.85
2023-04-25T02:47:23.318Z,14.83
2023-04-25T02:47:46.306Z,14.88
2023-04-25T02:48:08.101Z,14.88
2023-04-25T02:48:30.270Z,14.90
2023-04-25T02:48:51.936Z,14.94
2023-04-25T02:49:14.573Z,14.95
2023-04-25T02:49:36.279Z,14.95
2023-04-25T02:49:58.099Z,14.87
2023-04-25T02:50:19.871Z,14.97
2023-04-25T02:50:42.575Z,14.97
2023-04-25T02:51:04.230Z,14.98
2023-04-25T02:51:25.981Z,14.98
2023-04-25T02:51:47.766Z,14.97
2023-04-25T02:52:10.794Z,14.97
2023-04-25T02:52:33.746Z,14.97
2023-04-25T02:53:04.695Z,14.98
2023-04-25T02:53:33.567Z,15.03
2023-04-25T02:53:55.233Z,15.04
2023-04-25T02:54:42.323Z,15.04
2023-04-25T02:55:05.184Z,15.03
2023-04-25T02:55:28.478Z,15.02
2023-04-25T02:55:50.743Z,15.01
2023-04-25T02:56:12.514Z,15.06
2023-04-25T02:56:35.195Z,15.08
2023-04-25T02:56:56.968Z,15.08
2023-04-25T02:57:22.494Z,15.03
2023-04-25T02:57:44.123Z,15.06
2023-04-25T02:58:10.169Z,15.03
2023-04-25T02:58:39.300Z,15.04
2023-04-25T02:59:00.893Z,15.03
2023-04-25T02:59:23.350Z,15.07
2023-04-25T02:59:44.993Z,15.04
2023-04-25T03:00:09.227Z,15.07
2023-04-25T03:00:31.153Z,15.08
2023-04-25T03:00:53.191Z,15.08
2023-04-25T03:01:14.986Z,15.08
2023-04-25T03:01:37.586Z,15.09
2023-04-25T03:01:59.293Z,15.09
2023-04-25T03:02:21.533Z,15.10
2023-04-25T03:02:43.659Z,15.10
2023-04-25T03:03:07.035Z,15.12
2023-04-25T03:03:29.855Z,15.12
2023-04-25T03:03:51.575Z,15.08
2023-04-25T03:04:13.576Z,15.07
2023-04-25T03:04:35.274Z,15.09
2023-04-25T03:04:58.092Z,15.08
2023-04-25T03:05:20.281Z,15.08
2023-04-25T03:05:41.885Z,15.12
2023-04-25T03:06:04.062Z,15.12
2023-04-25T03:06:28.163Z,15.12
2023-04-25T03:06:50.764Z,15.14
2023-04-25T03:07:12.579Z,15.05
2023-04-25T03:07:35.569Z,15.16
2023-04-25T03:07:57.154Z,15.14
2023-04-25T03:08:19.887Z,15.12
2023-04-25T03:08:43.008Z,15.13
2023-04-25T03:09:06.467Z,15.14
2023-04-25T03:09:28.093Z,15.13
2023-04-25T03:09:50.712Z,15.14
2023-04-25T03:10:12.627Z,15.16
2023-04-25T03:10:34.519Z,15.13
2023-04-25T03:11:00.398Z,15.10
2023-04-25T03:11:22.136Z,15.15
2023-04-25T03:11:47.003Z,15.16
2023-04-25T03:12:08.648Z,15.18
2023-04-25T03:12:30.733Z,15.17
2023-04-25T03:12:52.407Z,15.09
2023-04-25T03:13:14.993Z,15.14
2023-04-25T03:13:38.494Z,15.16
2023-04-25T03:14:00.744Z,15.14
2023-04-25T03:14:22.587Z,15.05
2023-04-25T03:14:45.120Z,15.15
2023-04-25T03:15:07.634Z,15.15
2023-04-25T03:15:29.246Z,15.10
2023-04-25T03:15:50.998Z,15.11
2023-04-25T03:16:14.186Z,15.13
2023-04-25T03:16:37.722Z,15.15
2023-04-25T03:16:59.439Z,15.14
2023-04-25T03:17:21.210Z,15.16
2023-04-25T03:17:44.872Z,15.19
2023-04-25T03:18:06.689Z,15.20
2023-04-25T03:18:29.325Z,15.20
2023-04-25T03:18:51.738Z,15.19
2023-04-25T03:19:13.567Z,15.20
2023-04-25T03:19:35.254Z,15.20
2023-04-25T03:19:59.597Z,15.21
2023-04-25T03:20:21.449Z,15.20
2023-04-25T03:20:43.837Z,15.20
2023-04-25T03:21:05.724Z,15.21
2023-04-25T03:21:28.637Z,15.19
2023-04-25T03:21:50.440Z,15.19
2023-04-25T03:22:12.153Z,15.19
2023-04-25T03:22:35.231Z,15.20
2023-04-25T03:22:58.223Z,15.19
2023-04-25T03:23:19.892Z,15.16
2023-04-25T03:23:41.595Z,15.15
2023-04-25T03:24:05.257Z,15.12
2023-04-25T03:24:28.124Z,15.09
2023-04-25T03:24:51.034Z,15.04
2023-04-25T03:25:12.620Z,15.05
2023-04-25T03:25:34.325Z,15.07
2023-04-25T03:25:56.990Z,15.04
2023-04-25T03:26:18.617Z,15.06
2023-04-25T03:26:40.393Z,15.09
2023-04-25T03:27:02.319Z,15.09
2023-04-25T03:27:25.089Z,15.10
2023-04-25T03:27:46.881Z,15.13
2023-04-25T03:28:08.507Z,15.11
2023-04-25T03:28:30.219Z,15.11
2023-04-25T03:28:53.546Z,15.01
2023-04-25T03:29:15.476Z,15.11
2023-04-25T03:29:38.611Z,15.09
2023-04-25T03:30:00.830Z,15.09
2023-04-25T03:30:23.514Z,15.11
2023-04-25T03:30:45.942Z,15.10
2023-04-25T03:31:09.055Z,15.09
2023-04-25T03:31:31.590Z,15.08
2023-04-25T03:31:54.423Z,15.07
2023-04-25T03:32:16.511Z,15.05
2023-04-25T03:32:38.654Z,15.04
2023-04-25T03:33:02.578Z,14.69
2023-04-25T03:33:24.266Z,15.03
2023-04-25T03:33:46.907Z,14.97
2023-04-25T03:34:08.640Z,15.01
2023-04-25T03:34:31.779Z,15.01
2023-04-25T03:34:53.667Z,15.02
2023-04-25T03:35:15.626Z,15.01
2023-04-25T03:35:38.162Z,15.01
2023-04-25T03:35:59.813Z,15.00
2023-04-25T03:36:23.840Z,15.01
2023-04-25T03:36:46.244Z,15.01
2023-04-25T03:37:08.864Z,14.97
2023-04-25T03:37:33.227Z,15.03
2023-04-25T03:37:57.230Z,15.03
2023-04-25T03:38:24.153Z,15.01
2023-04-25T03:38:45.953Z,15.02
2023-04-25T03:39:11.264Z,15.03
2023-04-25T03:39:33.890Z,15.05
2023-04-25T03:39:55.696Z,15.05
2023-04-25T03:40:20.101Z,15.01
2023-04-25T03:41:03.293Z,15.08
2023-04-25T03:41:34.302Z,15.14
2023-04-25T03:42:00.209Z,15.13
2023-04-25T03:42:25.492Z,15.12
2023-04-25T03:42:58.734Z,15.13
2023-04-25T03:43:20.664Z,15.11
2023-04-25T03:43:50.950Z,15.15
2023-04-25T03:44:12.936Z,15.14
2023-04-25T03:44:35.762Z,15.12
2023-04-25T03:44:58.126Z,15.09
2023-04-25T03:45:20.348Z,15.12
2023-04-25T03:45:42.704Z,15.13
2023-04-25T03:46:05.708Z,15.13
2023-04-25T03:46:27.472Z,15.14
2023-04-25T03:46:49.263Z,15.14
2023-04-25T03:47:11.106Z,15.14
2023-04-25T03:47:33.982Z,15.10
2023-04-25T03:47:55.932Z,15.14
2023-04-25T03:48:17.652Z,15.16
2023-04-25T03:48:39.396Z,15.18
2023-04-25T03:49:02.278Z,15.18
2023-04-25T03:49:41.213Z,15.19
2023-04-25T03:50:03.846Z,15.18
2023-04-25T03:50:25.733Z,15.12
2023-04-25T03:50:48.399Z,15.19
2023-04-25T03:51:11.055Z,15.19
2023-04-25T03:51:37.112Z,15.21
2023-04-25T03:51:58.965Z,15.21
2023-04-25T03:52:21.839Z,15.22
2023-04-25T03:52:44.033Z,15.24
2023-04-25T03:53:07.020Z,15.23
2023-04-25T03:53:49.856Z,15.24
2023-04-25T03:54:14.423Z,15.23
2023-04-25T03:54:48.468Z,15.26
2023-04-25T03:55:14.842Z,15.24
2023-04-25T03:55:36.780Z,15.24
2023-04-25T03:55:58.768Z,15.24
2023-04-25T03:56:21.130Z,15.22
2023-04-25T03:56:50.592Z,15.24
2023-04-25T03:57:16.339Z,15.22
2023-04-25T03:57:38.589Z,15.26
2023-04-25T03:58:01.211Z,15.23
2023-04-25T03:58:24.194Z,15.22
2023-04-25T03:58:45.916Z,15.20
2023-04-25T03:59:08.837Z,15.23
2023-04-25T03:59:33.038Z,15.25
2023-04-25T03:59:55.269Z,15.25
2023-04-25T04:00:17.661Z,15.23
2023-04-25T04:00:39.261Z,15.23
2023-04-25T04:01:01.240Z,15.21
2023-04-25T04:01:24.023Z,15.13
2023-04-25T04:01:45.690Z,15.24
2023-04-25T04:02:07.531Z,15.23
2023-04-25T04:02:31.145Z,15.22
2023-04-25T04:02:54.826Z,15.18
2023-04-25T04:03:16.554Z,15.22
2023-04-25T04:03:39.311Z,15.14
2023-04-25T04:04:01.699Z,15.24
2023-04-25T04:04:24.352Z,15.23
2023-04-25T04:04:47.480Z,15.24
2023-04-25T04:05:10.389Z,15.17
2023-04-25T04:05:35.651Z,15.26
2023-04-25T04:05:57.935Z,15.27
2023-04-25T04:06:21.677Z,15.30
2023-04-25T04:06:50.582Z,15.22
2023-04-25T04:07:17.746Z,15.16
2023-04-25T04:07:43.835Z,15.29
2023-04-25T04:08:08.142Z,15.30
2023-04-25T04:08:30.305Z,15.29
2023-04-25T04:08:52.055Z,15.25
2023-04-25T04:09:16.809Z,15.22
2023-04-25T04:09:39.596Z,15.26
2023-04-25T04:10:06.322Z,15.26
2023-04-25T04:10:32.603Z,15.22
2023-04-25T04:10:54.249Z,15.25
2023-04-25T04:11:15.966Z,15.27
2023-04-25T04:11:39.265Z,15.25
2023-04-25T04:12:04.941Z,15.25
2023-04-25T04:12:27.819Z,15.27
2023-04-25T04:12:49.516Z,15.26
2023-04-25T04:13:12.536Z,15.17
2023-04-25T04:13:35.098Z,15.28
2023-04-25T04:13:57.701Z,15.26
2023-04-25T04:14:19.454Z,15.28
2023-04-25T04:14:42.657Z,15.23
2023-04-25T04:15:07.677Z,15.23
2023-04-25T04:15:30.775Z,15.17
2023-04-25T04:15:52.567Z,15.22
2023-04-25T04:16:14.439Z,15.26
2023-04-25T04:16:37.167Z,15.26
2023-04-25T04:16:58.881Z,15.25
2023-04-25T04:17:21.472Z,15.24
2023-04-25T04:17:43.733Z,15.20
2023-04-25T04:18:07.253Z,15.23
2023-04-25T04:18:29.159Z,15.22
2023-04-25T04:18:51.980Z,15.18
2023-04-25T04:19:13.593Z,15.19
2023-04-25T04:19:40.927Z,15.18
2023-04-25T04:20:09.717Z,15.17
2023-04-25T04:20:31.421Z,15.16
2023-04-25T04:20:54.025Z,15.16
2023-04-25T04:21:15.978Z,15.16
2023-04-25T04:21:37.691Z,15.15
2023-04-25T04:21:59.371Z,15.15
2023-04-25T04:22:22.557Z,15.20
2023-04-25T04:22:44.624Z,15.19
2023-04-25T04:23:10.299Z,15.18
2023-04-25T04:23:32.093Z,15.19
2023-04-25T04:23:56.157Z,15.24
2023-04-25T04:24:18.036Z,15.28
2023-04-25T04:24:47.833Z,15.25
2023-04-25T04:25:14.617Z,15.28
2023-04-25T04:26:06.487Z,15.27
2023-04-25T04:26:48.223Z,15.23
2023-04-25T04:27:25.299Z,15.26
2023-04-25T04:28:03.043Z,15.20
2023-04-25T04:28:45.131Z,15.17
2023-04-25T04:29:21.413Z,15.13
2023-04-25T04:29:54.512Z,15.24
2023-04-25T04:30:26.938Z,15.23
2023-04-25T04:30:53.700Z,15.22
2023-04-25T04:31:17.818Z,15.19
2023-04-25T04:31:39.888Z,15.17
2023-04-25T04:32:02.187Z,15.13
2023-04-25T04:32:25.607Z,15.20
2023-04-25T04:32:50.694Z,15.18
2023-04-25T04:33:13.117Z,15.15
2023-04-25T04:33:36.119Z,15.24
2023-04-25T04:33:59.386Z,15.17
2023-04-25T04:34:22.084Z,15.23
2023-04-25T04:34:45.564Z,15.10
2023-04-25T04:35:09.959Z,15.28
2023-04-25T04:35:32.562Z,15.01
2023-04-25T04:35:54.606Z,15.23
2023-04-25T04:36:17.041Z,15.25
2023-04-25T04:36:38.789Z,15.30
2023-04-25T04:37:01.308Z,15.18
2023-04-25T04:37:23.965Z,15.31
2023-04-25T04:37:46.662Z,15.31
2023-04-25T04:38:11.752Z,15.23
2023-04-25T04:38:34.801Z,15.28
2023-04-25T04:38:59.718Z,15.32
2023-04-25T04:39:30.547Z,15.32
2023-04-25T04:40:00.613Z,15.31
2023-04-25T04:40:35.779Z,15.34
2023-04-25T04:41:15.580Z,15.34
2023-04-25T04:42:02.625Z,15.26
2023-04-25T04:42:37.164Z,15.33
2023-04-25T04:43:11.653Z,15.36
2023-04-25T04:43:51.215Z,15.37
2023-04-25T04:44:29.413Z,15.35
2023-04-25T04:45:13.909Z,15.39
2023-04-25T04:45:42.337Z,15.38
2023-04-25T04:46:16.002Z,15.26
2023-04-25T04:46:51.551Z,15.33
2023-04-25T04:47:31.713Z,15.31
2023-04-25T04:48:06.646Z,15.31
2023-04-25T04:48:29.148Z,15.30
2023-04-25T04:48:57.864Z,15.31
2023-04-25T04:49:38.457Z,15.27
2023-04-25T04:50:30.409Z,15.26
2023-04-25T04:51:11.383Z,15.24
2023-04-25T04:51:33.278Z,15.21
2023-04-25T04:52:06.114Z,15.26
2023-04-25T04:52:47.841Z,15.27
2023-04-25T04:53:30.958Z,15.25
2023-04-25T04:54:12.352Z,15.26
2023-04-25T04:54:45.942Z,15.29
2023-04-25T04:55:11.876Z,15.28
2023-04-25T04:55:47.146Z,15.24
2023-04-25T04:56:34.318Z,15.26
2023-04-25T04:57:10.774Z,15.25
2023-04-25T04:57:45.522Z,15.18
2023-04-25T04:58:31.701Z,15.13
2023-04-25T04:59:13.564Z,15.02
2023-04-25T04:59:59.570Z,15.14
2023-04-25T05:00:39.748Z,15.20
2023-04-25T05:01:21.496Z,15.18
2023-04-25T05:01:52.021Z,15.21
2023-04-25T05:02:19.802Z,15.22
2023-04-25T05:02:58.663Z,15.24
2023-04-25T05:03:43.664Z,15.20
2023-04-25T05:04:15.580Z,15.24
2023-04-25T05:04:44.353Z,15.24
2023-04-25T05:05:24.941Z,15.21
2023-04-25T05:05:58.485Z,15.22
2023-04-25T05:06:41.357Z,15.22
2023-04-25T05:07:23.265Z,15.26
2023-04-25T05:08:08.832Z,15.24
2023-04-25T05:08:51.602Z,15.27
2023-04-25T05:09:28.603Z,15.27
2023-04-25T05:10:12.162Z,15.25
2023-04-25T05:10:59.734Z,15.26
2023-04-25T05:11:33.332Z,15.23
2023-04-25T05:12:06.828Z,15.28
2023-04-25T05:12:31.449Z,15.23
2023-04-25T05:13:03.767Z,15.27
2023-04-25T05:13:48.809Z,15.28
2023-04-25T05:14:32.057Z,15.18
2023-04-25T05:15:20.688Z,15.34
2023-04-25T05:16:08.589Z,15.34
2023-04-25T05:16:42.116Z,15.36
2023-04-25T05:17:30.923Z,15.42
2023-04-25T05:18:23.648Z,15.43